createdAt,value
2022-12-01T00:01:02.008Z,14.10
2022-12-01T00:03:32.094Z,13.98
2022-12-01T00:06:07.040Z,13.13
2022-12-01T00:08:34.080Z,13.43
2022-12-01T00:11:13.994Z,13.10
2022-12-01T00:13:40.529Z,13.95
2022-12-01T00:16:15.178Z,13.27
2022-12-01T00:18:41.702Z,13.23
2022-12-01T00:21:15.784Z,13.73
2022-12-01T00:23:47.399Z,13.23
2022-12-01T00:26:14.779Z,12.23
2022-12-01T00:28:41.323Z,13.15
2022-12-01T00:31:12.093Z,13.02
2022-12-01T00:33:39.467Z,12.88
2022-12-01T00:36:07.077Z,13.55
2022-12-01T00:38:33.939Z,13.65
2022-12-01T00:41:00.451Z,12.80
2022-12-01T00:43:26.944Z,13.48
2022-12-01T00:45:53.550Z,14.10
2022-12-01T00:48:20.097Z,13.82
2022-12-01T00:50:47.144Z,13.68
2022-12-01T00:53:13.593Z,13.85
2022-12-01T00:55:40.441Z,13.70
2022-12-01T00:58:07.610Z,12.68
2022-12-01T01:00:34.604Z,13.32
2022-12-01T01:03:01.481Z,13.63
2022-12-01T01:05:27.962Z,13.48
2022-12-01T01:07:54.463Z,13.63
2022-12-01T01:10:21.069Z,13.70
2022-12-01T01:12:47.486Z,14.55
2022-12-01T01:15:13.974Z,13.88
2022-12-01T01:17:40.460Z,13.50
2022-12-01T01:20:07.730Z,12.93
2022-12-01T01:22:35.285Z,13.70
2022-12-01T01:25:01.990Z,12.55
2022-12-01T01:27:28.410Z,13.48
2022-12-01T01:29:54.830Z,13.45
2022-12-01T01:32:21.262Z,13.93
2022-12-01T01:34:47.685Z,14.40
2022-12-01T01:37:15.072Z,13.65
2022-12-01T01:39:41.551Z,13.15
2022-12-01T01:42:13.333Z,13.13
2022-12-01T01:44:54.364Z,14.77
2022-12-01T01:47:29.272Z,13.93
2022-12-01T01:49:57.853Z,14.45
2022-12-01T01:52:24.894Z,13.68
2022-12-01T01:54:54.888Z,13.38
2022-12-01T01:57:29.628Z,13.95
2022-12-01T02:00:02.249Z,14.40
2022-12-01T02:02:28.828Z,13.85
2022-12-01T02:05:01.952Z,13.43
2022-12-01T02:07:28.938Z,13.27
2022-12-01T02:09:55.849Z,13.23
2022-12-01T02:12:43.798Z,13.45
2022-12-01T02:15:41.167Z,13.48
2022-12-01T02:18:28.998Z,13.82
2022-12-01T02:21:10.587Z,13.18
2022-12-01T02:23:45.932Z,12.88
2022-12-01T02:26:27.650Z,13.82
2022-12-01T02:29:19.294Z,13.52
2022-12-01T02:32:09.651Z,14.25
2022-12-01T02:35:14.479Z,12.80
2022-12-01T02:37:49.296Z,13.70
2022-12-01T02:40:26.916Z,14.02
2022-12-01T02:43:03.721Z,13.82
2022-12-01T02:45:56.231Z,13.38
2022-12-01T02:48:33.098Z,13.52
2022-12-01T02:51:18.530Z,13.65
2022-12-01T02:53:45.164Z,13.15
2022-12-01T02:56:13.521Z,13.85
2022-12-01T02:58:40.022Z,13.20
2022-12-01T03:01:34.614Z,13.63
2022-12-01T03:04:03.770Z,13.40
2022-12-01T03:06:39.380Z,13.70
2022-12-01T03:09:15.634Z,15.00
2022-12-01T03:11:52.340Z,13.20
2022-12-01T03:14:36.866Z,13.88
2022-12-01T03:17:10.955Z,14.13
2022-12-01T03:19:43.829Z,14.07
2022-12-01T03:22:24.850Z,14.65
2022-12-01T03:24:54.549Z,13.85
2022-12-01T03:27:25.771Z,13.73
2022-12-01T03:29:55.448Z,13.50
2022-12-01T03:32:27.606Z,14.20
2022-12-01T03:35:04.660Z,13.67
2022-12-01T03:37:45.386Z,13.65
2022-12-01T03:40:17.765Z,14.25
2022-12-01T03:42:50.193Z,14.43
2022-12-01T03:45:31.207Z,13.68
2022-12-01T03:47:57.753Z,13.85
2022-12-01T03:50:29.289Z,13.57
2022-12-01T03:53:19.308Z,13.38
2022-12-01T03:55:52.274Z,14.27
2022-12-01T03:58:22.880Z,14.90
2022-12-01T04:00:53.292Z,15.05
2022-12-01T04:03:22.871Z,14.20
2022-12-01T04:05:49.424Z,13.98
2022-12-01T04:08:15.945Z,13.70
2022-12-01T04:10:42.940Z,13.38
2022-12-01T04:13:16.631Z,14.05
2022-12-01T04:15:43.594Z,13.60
2022-12-01T04:18:10.138Z,13.20
2022-12-01T04:20:36.625Z,14.57
2022-12-01T04:23:03.058Z,14.38
2022-12-01T04:25:29.496Z,15.48
2022-12-01T04:27:55.940Z,14.18
2022-12-01T04:30:22.445Z,13.57
2022-12-01T04:32:48.866Z,14.43
2022-12-01T04:35:15.364Z,14.65
2022-12-01T04:37:41.785Z,14.70
2022-12-01T04:40:08.899Z,13.73
2022-12-01T04:42:35.536Z,13.77
2022-12-01T04:45:02.049Z,15.05
2022-12-01T04:47:28.513Z,14.23
2022-12-01T04:49:54.958Z,14.13
2022-12-01T04:52:21.397Z,13.20
2022-12-01T04:54:47.839Z,13.82
2022-12-01T04:57:14.314Z,14.13
2022-12-01T04:59:40.808Z,14.57
2022-12-01T05:02:07.605Z,14.75
2022-12-01T05:04:38.394Z,14.48
2022-12-01T05:07:05.127Z,13.70
2022-12-01T05:09:31.549Z,14.63
2022-12-01T05:11:58.019Z,13.85
2022-12-01T05:14:24.441Z,14.88
2022-12-01T05:16:51.024Z,14.52
2022-12-01T05:19:36.267Z,14.98
2022-12-01T05:22:02.778Z,14.13
2022-12-01T05:24:29.317Z,14.77
2022-12-01T05:26:55.803Z,14.18
2022-12-01T05:29:22.246Z,15.48
2022-12-01T05:31:48.728Z,15.02
2022-12-01T05:34:15.335Z,14.93
2022-12-01T05:36:41.971Z,14.68
2022-12-01T05:39:08.477Z,14.88
2022-12-01T05:41:34.949Z,14.82
2022-12-01T05:44:01.473Z,14.48
2022-12-01T05:46:28.006Z,14.10
2022-12-01T05:48:54.553Z,13.80
2022-12-01T05:51:21.065Z,14.50
2022-12-01T05:53:48.332Z,13.65
2022-12-01T05:56:14.818Z,14.15
2022-12-01T05:58:41.290Z,14.00
2022-12-01T06:01:07.793Z,13.98
2022-12-01T06:03:34.234Z,13.63
2022-12-01T06:06:00.940Z,13.82
2022-12-01T06:08:27.812Z,13.52
2022-12-01T06:10:54.364Z,12.27
2022-12-01T06:13:20.858Z,13.27
2022-12-01T06:15:59.413Z,13.95
2022-12-01T06:18:27.273Z,13.48
2022-12-01T06:20:53.711Z,13.05
2022-12-01T06:23:20.605Z,13.02
2022-12-01T06:25:47.120Z,12.90
2022-12-01T06:28:13.858Z,13.13
2022-12-01T06:30:40.302Z,13.82
2022-12-01T06:33:07.264Z,13.10
2022-12-01T06:35:34.426Z,13.73
2022-12-01T06:38:00.985Z,12.48
2022-12-01T06:40:27.518Z,13.25
2022-12-01T06:42:54.108Z,13.30
2022-12-01T06:45:20.629Z,13.20
2022-12-01T06:47:48.392Z,13.55
2022-12-01T06:52:59.391Z,13.82
2022-12-01T06:55:26.037Z,13.82
2022-12-01T06:57:52.644Z,13.65
2022-12-01T07:00:19.717Z,13.20
2022-12-01T07:02:46.370Z,13.23
2022-12-01T07:05:12.909Z,13.10
2022-12-01T07:07:39.856Z,12.80
2022-12-01T07:10:07.791Z,13.00
2022-12-01T07:12:34.273Z,13.18
2022-12-01T07:15:01.622Z,12.82
2022-12-01T07:17:29.804Z,13.50
2022-12-01T07:19:56.885Z,13.57
2022-12-01T07:22:25.920Z,12.30
2022-12-01T07:24:56.027Z,13.13
2022-12-01T07:27:22.635Z,13.35
2022-12-01T07:29:49.326Z,13.07
2022-12-01T07:32:15.995Z,13.45
2022-12-01T07:34:42.503Z,13.23
2022-12-01T07:37:08.965Z,13.88
2022-12-01T07:39:35.548Z,13.57
2022-12-01T07:42:02.863Z,13.38
2022-12-01T07:44:29.307Z,14.68
2022-12-01T07:46:55.910Z,13.63
2022-12-01T07:49:22.420Z,13.57
2022-12-01T07:51:48.966Z,13.40
2022-12-01T07:54:16.848Z,13.77
2022-12-01T07:56:43.421Z,13.02
2022-12-01T07:59:09.967Z,13.10
2022-12-01T08:01:39.240Z,12.93
2022-12-01T08:06:36.139Z,12.38
2022-12-01T08:09:02.669Z,12.55
2022-12-01T08:11:29.905Z,14.38
2022-12-01T08:13:56.859Z,13.93
2022-12-01T08:16:24.693Z,14.07
2022-12-01T08:18:51.741Z,28.58
2022-12-01T08:21:21.460Z,36.83
2022-12-01T08:23:48.740Z,43.88
2022-12-01T08:26:17.621Z,47.15
2022-12-01T08:28:45.208Z,93.53
2022-12-01T08:31:24.076Z,58.15
2022-12-01T08:33:51.210Z,86.90
2022-12-01T08:36:19.039Z,102.28
2022-12-01T08:38:47.777Z,138.82
2022-12-01T08:41:15.290Z,167.50
2022-12-01T08:44:08.822Z,105.18
2022-12-01T08:46:35.181Z,144.10
2022-12-01T08:49:05.845Z,164.05
2022-12-01T08:51:33.179Z,134.48
2022-12-01T08:54:00.476Z,112.15
2022-12-01T08:56:28.816Z,202.88
2022-12-01T08:58:55.674Z,212.88
2022-12-01T09:01:22.784Z,258.05
2022-12-01T09:04:04.956Z,173.88
2022-12-01T09:06:33.692Z,198.30
2022-12-01T09:09:00.471Z,232.52
2022-12-01T09:11:27.032Z,190.55
2022-12-01T09:13:54.785Z,167.85
2022-12-01T09:16:22.087Z,158.18
2022-12-01T09:18:48.900Z,157.45
2022-12-01T09:21:24.620Z,150.63
2022-12-01T09:23:51.404Z,153.02
2022-12-01T09:26:19.642Z,149.70
2022-12-01T09:28:46.956Z,199.27
2022-12-01T09:31:14.819Z,200.80
2022-12-01T09:33:41.494Z,275.40
2022-12-01T09:36:09.054Z,255.98
2022-12-01T09:38:36.973Z,301.77
2022-12-01T09:41:09.366Z,231.15
2022-12-01T09:43:47.946Z,203.38
2022-12-01T09:46:20.381Z,177.60
2022-12-01T09:48:49.471Z,174.77
2022-12-01T09:51:27.830Z,171.10
2022-12-01T09:53:59.501Z,166.25
2022-12-01T09:56:29.181Z,157.55
2022-12-01T09:59:05.449Z,154.82
2022-12-01T10:01:36.577Z,151.57
2022-12-01T10:04:22.265Z,145.18
2022-12-01T10:06:59.263Z,142.77
2022-12-01T10:09:34.898Z,141.32
2022-12-01T10:12:13.395Z,136.30
2022-12-01T10:14:39.937Z,133.95
2022-12-01T10:17:18.259Z,132.88
2022-12-01T10:20:14.221Z,130.98
2022-12-01T10:23:18.322Z,132.13
2022-12-01T10:25:50.903Z,128.25
2022-12-01T10:28:53.045Z,123.15
2022-12-01T10:31:23.348Z,122.45
2022-12-01T10:34:00.713Z,117.40
2022-12-01T10:36:29.119Z,115.35
2022-12-01T10:38:55.823Z,111.07
2022-12-01T10:41:28.423Z,112.88
2022-12-01T10:44:00.751Z,112.55
2022-12-01T10:46:48.970Z,108.63
2022-12-01T10:49:17.856Z,108.80
2022-12-01T10:51:54.848Z,105.85
2022-12-01T10:54:23.632Z,99.45
2022-12-01T10:56:55.733Z,103.32
2022-12-01T10:59:34.285Z,98.47
2022-12-01T11:02:02.225Z,98.35
2022-12-01T11:04:45.184Z,97.07
2022-12-01T11:07:18.546Z,93.80
2022-12-01T11:09:48.505Z,90.72
2022-12-01T11:12:17.837Z,92.28
2022-12-01T11:14:48.478Z,89.03
2022-12-01T11:17:38.633Z,87.28
2022-12-01T11:20:27.911Z,87.22
2022-12-01T11:23:26.508Z,83.00
2022-12-01T11:25:55.962Z,83.70
2022-12-01T11:28:22.583Z,84.47
2022-12-01T11:30:56.756Z,79.70
2022-12-01T11:33:23.493Z,80.03
2022-12-01T11:35:50.218Z,77.13
2022-12-01T11:38:30.661Z,75.35
2022-12-01T11:40:58.502Z,73.68
2022-12-01T11:43:37.252Z,75.75
2022-12-01T11:46:06.512Z,71.97
2022-12-01T11:48:35.237Z,71.50
2022-12-01T11:51:20.198Z,71.60
2022-12-01T11:53:47.113Z,71.97
2022-12-01T11:56:25.324Z,67.43
2022-12-01T11:59:04.895Z,68.65
2022-12-01T12:02:08.725Z,66.47
2022-12-01T12:04:35.207Z,66.18
2022-12-01T12:07:35.784Z,63.60
2022-12-01T12:10:23.622Z,61.83
2022-12-01T12:13:00.301Z,61.53
2022-12-01T12:15:43.442Z,61.55
2022-12-01T12:20:48.277Z,59.90
2022-12-01T12:23:50.938Z,57.42
2022-12-01T12:26:25.369Z,57.42
2022-12-01T12:29:22.649Z,56.53
2022-12-01T12:32:17.192Z,53.75
2022-12-01T12:35:01.518Z,54.67
2022-12-01T12:37:48.849Z,53.08
2022-12-01T12:40:34.035Z,52.15
2022-12-01T12:43:25.637Z,51.25
2022-12-01T12:46:03.856Z,50.38
2022-12-01T12:51:58.431Z,48.88
2022-12-01T12:54:31.738Z,48.20
2022-12-01T12:57:04.806Z,49.25
2022-12-01T13:02:12.465Z,44.28
2022-12-01T13:04:59.546Z,46.50
2022-12-01T13:07:37.663Z,45.65
2022-12-01T13:10:19.477Z,44.97
2022-12-01T13:12:56.068Z,44.33
2022-12-01T13:15:22.551Z,44.13
2022-12-01T13:17:56.242Z,42.95
2022-12-01T13:20:27.686Z,42.17
2022-12-01T13:22:57.175Z,43.25
2022-12-01T13:25:33.044Z,42.25
2022-12-01T13:28:03.171Z,41.65
2022-12-01T13:30:29.848Z,39.65
2022-12-01T13:33:16.679Z,39.75
2022-12-01T13:35:44.382Z,39.92
2022-12-01T13:38:26.306Z,39.90
2022-12-01T13:41:17.972Z,37.70
2022-12-01T13:44:00.530Z,36.95
2022-12-01T13:46:51.751Z,37.03
2022-12-01T13:49:39.523Z,38.30
2022-12-01T13:52:21.385Z,36.22
2022-12-01T13:55:12.044Z,36.47
2022-12-01T13:57:50.921Z,35.80
2022-12-01T14:00:27.929Z,34.88
2022-12-01T14:03:14.219Z,35.53
2022-12-01T14:05:53.081Z,34.95
2022-12-01T14:08:28.618Z,33.38
2022-12-01T14:10:57.486Z,34.08
2022-12-01T14:13:25.052Z,33.13
2022-12-01T14:15:58.754Z,32.75
2022-12-01T14:18:33.192Z,31.95
2022-12-01T14:21:02.093Z,31.63
2022-12-01T14:23:34.031Z,32.20
2022-12-01T14:26:18.156Z,30.95
2022-12-01T14:28:59.738Z,31.08
2022-12-01T14:31:32.371Z,29.23
2022-12-01T14:34:02.320Z,30.55
2022-12-01T14:36:34.412Z,28.55
2022-12-01T14:39:06.534Z,30.20
2022-12-01T14:41:43.580Z,29.30
2022-12-01T14:44:19.499Z,27.02
2022-12-01T14:46:53.046Z,27.98
2022-12-01T14:49:29.308Z,26.92
2022-12-01T14:52:04.487Z,27.38
2022-12-01T14:54:47.751Z,26.60
2022-12-01T14:57:20.485Z,26.92
2022-12-01T14:59:46.975Z,25.63
2022-12-01T15:02:13.693Z,26.30
2022-12-01T15:05:13.838Z,25.77
2022-12-01T15:07:43.367Z,26.42
2022-12-01T15:10:20.587Z,24.50
2022-12-01T15:12:47.798Z,24.98
2022-12-01T15:15:23.940Z,24.05
2022-12-01T15:17:52.375Z,24.42
2022-12-01T15:20:34.642Z,23.92
2022-12-01T15:23:08.240Z,21.93
2022-12-01T15:25:37.029Z,21.30
2022-12-01T15:28:10.300Z,24.13
2022-12-01T15:30:37.083Z,23.50
2022-12-01T15:33:04.947Z,22.40
2022-12-01T15:35:31.528Z,23.40
2022-12-01T15:37:58.518Z,23.20
2022-12-01T15:43:35.225Z,19.80
2022-12-01T15:46:12.283Z,22.38
2022-12-01T15:48:39.650Z,20.75
2022-12-01T15:51:28.182Z,21.02
2022-12-01T15:53:59.758Z,21.98
2022-12-01T15:56:31.458Z,21.08
2022-12-01T15:59:02.926Z,20.45
2022-12-01T16:01:30.510Z,20.30
2022-12-01T16:04:16.212Z,19.88
2022-12-01T16:06:43.331Z,19.58
2022-12-01T16:09:23.785Z,19.90
2022-12-01T16:12:09.227Z,20.20
2022-12-01T16:14:37.045Z,19.15
2022-12-01T16:17:05.286Z,19.60
2022-12-01T16:19:33.683Z,18.98
2022-12-01T16:22:12.374Z,20.30
2022-12-01T16:24:51.570Z,20.02
2022-12-01T16:27:22.650Z,19.67
2022-12-01T16:30:02.596Z,18.77
2022-12-01T16:32:37.941Z,19.08
2022-12-01T16:35:05.952Z,18.40
2022-12-01T16:37:32.509Z,18.80
2022-12-01T16:39:59.065Z,18.33
2022-12-01T16:42:25.543Z,17.55
2022-12-01T16:44:52.729Z,18.83
2022-12-01T16:47:22.839Z,22.98
2022-12-01T16:49:49.991Z,25.63
2022-12-01T16:55:03.931Z,26.33
2022-12-01T16:57:30.412Z,26.75
2022-12-01T16:59:56.854Z,24.67
2022-12-01T17:02:23.332Z,24.02
2022-12-01T17:04:50.067Z,24.40
2022-12-01T17:07:16.790Z,23.75
2022-12-01T17:09:43.292Z,22.65
2022-12-01T17:12:09.805Z,23.00
2022-12-01T17:14:36.232Z,22.27
2022-12-01T17:17:02.681Z,21.92
2022-12-01T17:19:29.100Z,22.88
2022-12-01T17:21:56.896Z,21.73
2022-12-01T17:24:23.440Z,20.55
2022-12-01T17:26:49.953Z,20.23
2022-12-01T17:29:16.394Z,19.73
2022-12-01T17:31:42.867Z,20.33
2022-12-01T17:34:09.891Z,19.55
2022-12-01T17:36:36.588Z,20.33
2022-12-01T17:39:03.114Z,20.73
2022-12-01T17:41:35.542Z,20.33
2022-12-01T17:44:04.222Z,20.33
2022-12-01T17:46:31.359Z,20.95
2022-12-01T17:48:58.630Z,19.52
2022-12-01T17:51:25.103Z,18.92
2022-12-01T17:53:53.455Z,18.50
2022-12-01T17:56:19.939Z,17.42
2022-12-01T17:58:46.476Z,17.17
2022-12-01T18:01:18.842Z,17.10
2022-12-01T18:03:45.581Z,17.17
2022-12-01T18:06:12.218Z,16.55
2022-12-01T18:08:39.864Z,17.58
2022-12-01T18:11:09.882Z,16.50
2022-12-01T18:13:41.590Z,17.73
2022-12-01T18:16:10.152Z,16.60
2022-12-01T18:18:37.966Z,17.05
2022-12-01T18:21:08.857Z,15.88
2022-12-01T18:23:35.774Z,16.38
2022-12-01T18:26:05.163Z,16.80
2022-12-01T18:28:32.309Z,14.73
2022-12-01T18:31:06.984Z,15.45
2022-12-01T18:33:34.618Z,16.42
2022-12-01T18:36:01.238Z,15.57
2022-12-01T18:38:28.238Z,15.25
2022-12-01T18:40:59.058Z,14.23
2022-12-01T18:43:26.612Z,15.40
2022-12-01T18:45:53.222Z,15.13
2022-12-01T18:48:19.855Z,15.93
2022-12-01T18:50:46.320Z,14.20
2022-12-01T18:53:12.825Z,14.75
2022-12-01T18:55:39.378Z,14.73
2022-12-01T18:58:06.488Z,14.27
2022-12-01T19:00:33.385Z,14.02
2022-12-01T19:02:59.907Z,13.98
2022-12-01T19:05:26.571Z,14.30
2022-12-01T19:07:54.119Z,14.77
2022-12-01T19:10:21.029Z,14.98
2022-12-01T19:12:47.553Z,14.27
2022-12-01T19:15:14.073Z,13.77
2022-12-01T19:17:40.555Z,13.63
2022-12-01T19:20:07.765Z,15.68
2022-12-01T19:22:34.213Z,13.75
2022-12-01T19:25:00.692Z,13.82
2022-12-01T19:27:28.666Z,13.70
2022-12-01T19:29:55.162Z,12.93
2022-12-01T19:32:21.752Z,13.57
2022-12-01T19:34:48.672Z,12.95
2022-12-01T19:37:15.435Z,13.73
2022-12-01T19:39:42.045Z,14.05
2022-12-01T19:42:08.570Z,13.73
2022-12-01T19:44:35.046Z,13.02
2022-12-01T19:47:03.668Z,13.13
2022-12-01T19:49:30.333Z,13.07
2022-12-01T19:51:56.895Z,13.30
2022-12-01T19:54:23.423Z,13.70
2022-12-01T19:56:50.705Z,12.63
2022-12-01T19:59:17.208Z,12.98
2022-12-01T20:01:43.921Z,12.80
2022-12-01T20:04:10.580Z,12.20
2022-12-01T20:06:38.062Z,12.38
2022-12-01T20:09:06.711Z,13.43
2022-12-01T20:11:35.277Z,12.93
2022-12-01T20:14:04.054Z,12.50
2022-12-01T20:16:30.846Z,13.35
2022-12-01T20:19:00.503Z,12.45
2022-12-01T20:21:29.947Z,12.40
2022-12-01T20:23:59.088Z,12.57
2022-12-01T20:26:30.729Z,11.32
2022-12-01T20:29:09.622Z,12.52
2022-12-01T20:31:37.626Z,11.80
2022-12-01T20:34:12.472Z,11.32
2022-12-01T20:36:40.501Z,11.60
2022-12-01T20:39:07.824Z,12.35
2022-12-01T20:41:35.121Z,11.77
2022-12-01T20:44:06.991Z,11.63
2022-12-01T20:46:35.372Z,12.68
2022-12-01T20:49:02.090Z,12.55
2022-12-01T20:51:28.666Z,11.93
2022-12-01T20:54:26.316Z,11.90
2022-12-01T20:56:41.700Z,11.23
2022-12-01T20:59:08.194Z,10.80
2022-12-01T21:01:34.879Z,11.48
2022-12-01T21:04:01.377Z,11.20
2022-12-01T21:06:29.150Z,11.90
2022-12-01T21:08:55.857Z,11.32
2022-12-01T21:11:51.262Z,12.13
2022-12-01T21:14:42.714Z,11.18
2022-12-01T21:17:25.089Z,11.10
2022-12-01T21:20:01.795Z,11.37
2022-12-01T21:22:28.482Z,11.07
2022-12-01T21:25:06.270Z,11.02
2022-12-01T21:27:32.702Z,12.10
2022-12-01T21:29:59.184Z,12.20
2022-12-01T21:32:30.645Z,11.27
2022-12-01T21:35:02.597Z,11.48
2022-12-01T21:37:29.158Z,11.70
2022-12-01T21:39:56.785Z,11.55
2022-12-01T21:42:27.160Z,12.65
2022-12-01T21:44:55.682Z,11.68
2022-12-01T21:47:25.867Z,12.40
2022-12-01T21:49:54.376Z,11.20
2022-12-01T21:52:23.606Z,11.70
2022-12-01T21:54:51.464Z,11.63
2022-12-01T21:57:32.227Z,12.40
2022-12-01T22:00:29.007Z,11.80
2022-12-01T22:03:07.890Z,11.23
2022-12-01T22:05:40.521Z,11.15
2022-12-01T22:08:25.592Z,12.25
2022-12-01T22:10:55.260Z,11.57
2022-12-01T22:13:25.146Z,10.27
2022-12-01T22:15:54.364Z,12.10
2022-12-01T22:18:29.855Z,11.27
2022-12-01T22:20:56.545Z,12.35
2022-12-01T22:23:32.284Z,11.30
2022-12-01T22:25:58.758Z,12.05
2022-12-01T22:28:25.681Z,11.15
2022-12-01T22:30:52.365Z,11.23
2022-12-01T22:33:24.544Z,11.45
2022-12-01T22:35:52.811Z,11.73
2022-12-01T22:38:21.418Z,10.95
2022-12-01T22:40:51.980Z,11.27
2022-12-01T22:43:18.386Z,11.32
2022-12-01T22:45:50.583Z,11.23
2022-12-01T22:48:42.066Z,11.30
2022-12-01T22:51:14.529Z,11.73
2022-12-01T22:53:42.139Z,10.57
2022-12-01T22:56:30.279Z,11.32
2022-12-01T22:58:56.979Z,10.75
2022-12-01T23:01:27.636Z,11.70
2022-12-01T23:04:12.531Z,11.32
2022-12-01T23:06:52.448Z,11.88
2022-12-01T23:09:21.383Z,11.35
2022-12-01T23:12:11.691Z,10.50
2022-12-01T23:15:27.148Z,11.30
2022-12-01T23:17:54.227Z,11.45
2022-12-01T23:20:20.633Z,10.90
2022-12-01T23:22:47.650Z,12.23
2022-12-01T23:25:19.378Z,11.23
2022-12-01T23:27:51.031Z,11.27
2022-12-01T23:30:19.763Z,11.20
2022-12-01T23:33:03.969Z,12.20
2022-12-01T23:35:34.722Z,12.27
2022-12-01T23:38:01.168Z,10.80
2022-12-01T23:40:33.514Z,11.65
2022-12-01T23:43:11.642Z,11.82
2022-12-01T23:45:38.118Z,12.32
2022-12-01T23:48:10.966Z,11.75
2022-12-01T23:53:04.071Z,10.75
2022-12-01T23:55:31.317Z,11.77
2022-12-01T23:57:58.784Z,11.45
